Latest METAR/SPECI Reports

LROP
METAR LROP 201630Z 15004KT 8000 SHRA FEW015 SCT040CB 17/14 Q1019 WS
ALL RWY R88/29//95 NOSIG=
LRTR
METAR LRTR 201630Z 30005KT 6000 NSC 14/11 Q1021 NOSIG=
LRCL
METAR LRCL 201630Z 26004KT CAVOK 15/11 Q1021=
LRSB
METAR LRSB 201630Z 26007KT CAVOK 12/09 Q1021=
LRBS
METAR LRBS 201630Z 25006KT 9999 FEW040CB SCT044 16/15 Q1019 RETSRA
R07/29//95 NOSIG=
LRCK
METAR COR LRCK 201630Z 36008KT CAVOK 15/09 Q1018 NOSIG=
LRSV
METAR LRSV 201630Z 33012KT 5000 BR NSC 11/09 Q1021=
LRIA
METAR LRIA 201630Z 31008KT CAVOK 15/08 Q1020=
LRTM
METAR COR LRTM 201630Z VRB01KT CAVOK 14/07 Q1020=
LROD
METAR LROD 201630Z 20004KT 5000 BR NSC 14/12 Q1021=
LRSM
METAR LRSM 201630Z AUTO 31005KT 6000 FEW090/// OVC130/// 14/12
Q1021=
LRBM
METAR LRBM 201630Z AUTO 26004KT 5000 BR FEW012/// SCT160///
BKN240/// 14/11 Q1021=
LRAR
METAR LRAR 201630Z 31003KT 8000 NSC 17/10 Q1021=
LRCV
METAR LRCV 201630Z AUTO 16003KT 9999 NCD 14/10 Q1019=
LRTC
METAR LRTC 201630Z 31006KT 6000 NSC 15/10 Q1018 R16/190095=
LRBC
METAR LRBC 201630Z 33004KT 7000 NSC 16/10 Q1020=
LRBO
METAR LRBO 201600Z 02010KT 5000 BR BKN100 17/09 Q1019 WHT WHT=
LRCT
METAR LRCT 201600Z 36007KT 9999 SCT050 BKN170 16/09 Q1020 BLU BLU=
LRFT
Report more than 3 hours old: METAR LRFT 201000Z 34006KT 4000 -RA BR OVC050 15/12 Q1020 GRN WHT=
LRTZ
METAR LRTZ 201600Z 03008KT 9999 SCT040 OVC080 16/10 Q1017 BLU BLU=

Latest TAF reports

LROP
TAF AMD LROP 201420Z 2014/2112 25010KT CAVOK TEMPO 2014/2017 5000
    SHRA BKN010 BKN030CB PROB30 2014/2016 VRB15G25KT 3000 TSRA BECMG
    2017/2019 VRB04KT TEMPO 2100/2105 3000 BR BECMG 2108/2110
    08010KT=
LRTR
TAF LRTR 201100Z 2012/2112 31006KT 9999 SCT045 TEMPO 2012/2014 5000
    BR SCT005 BKN040 TEMPO 2023/2104 5000 -RA BR BKN015 OVC030=
LRCL
TAF LRCL 201400Z 2015/2024 34008KT CAVOK BECMG 2018/2020 5000 RA
    BKN015 OVC035 TEMPO 2020/2024 3000 SHRA BKN010 SCT025CB OVC030=
LRSB
TAF LRSB 201100Z 2012/2112 VRB04KT 9999 BKN030 BECMG 2102/2104 5000
    RA BKN015 OVC030 TEMPO 2107/2112 3000 SHRA BKN010 SCT025CB
    OVC030=
LRBS
TAF AMD LRBS 201420Z 2014/2112 25010KT CAVOK TEMPO 2014/2017 5000
    SHRA BKN010 BKN030CB PROB30 2014/2016 VRB15G25KT 3000 TSRA BECMG
    2017/2019 VRB04KT TEMPO 2100/2105 3000 BR BECMG 2108/2110
    08010KT=
LRCK
TAF LRCK 201100Z 2012/2112 33008KT CAVOK PROB40 TEMPO 2012/2017 5000
    -SHRA SCT010 SCT030CB BKN035 TEMPO 2100/2105 3000 BR BKN010=
LRSV
TAF LRSV 201400Z 2015/2024 34010KT 5000 BR BKN035 TEMPO 2020/2024
    3000 BR BKN015=
LRIA
TAF LRIA 201400Z 2015/2024 31010KT CAVOK=
LRTM
TAF LRTM 201400Z 2015/2024 VRB04KT CAVOK BECMG 2020/2022 5000 RA
    BKN015 OVC035 TEMPO 2022/2024 3000 SHRA BKN010 SCT025CB OVC030=
LROD
TAF LROD 201400Z 2015/2024 VRB04KT 5000 BR NSC TEMPO 2021/2024 1500
    BR BKN005=
LRSM
TAF LRSM 201400Z 2015/2024 VRB04KT 5000 BR NSC TEMPO 2021/2024 1500
    BR BKN005=
LRBM
Report more than 12 hours old: TAF AMD LRBM 191406Z 1914/1921 CNL=
LRAR
TAF LRAR 201400Z 2015/2024 33006KT 5000 BR NSC TEMPO 2021/2024 1500
    BR BKN005=
LRCV
TAF LRCV 201400Z 2015/2024 VRB04KT CAVOK=
LRTC
TAF LRTC 201400Z 2015/2024 33008KT CAVOK=
LRBC
TAF LRBC 201400Z 2015/2024 36012KT CAVOK=
LRBO
TAF LRBO 201100Z 2012/2112 03014KT 7000 SCT050 BKN100
         PROB40 TEMPO 2015/2019 5000 SHRA BR SCT020CB OVC070=
LRCT
TAF LRCT 201100Z 2012/2112 36004KT 9999 FEW050 SCT150
         TEMPO 2013/2017 27010KT 6000 SHRA SCT030CB BKN070
         BECMG 2023/2101 VRB03KT 6000 RA FEW005 BKN010 OVC040
         TEMPO 2103/2107 3000 RA BR BKN004 OVC030=
LRFT
Report more than 12 hours old: TAF LRFT 181700Z 1818/1918 05006KT 9999 SCT050 BKN100
         TEMPO 1818/1821 SCT060CB TEMPO 1902/1906 3000 BR=
LRTZ
TAF LRTZ 201100Z 2012/2112 05012KT 9999 SCT030 BKN100
         PROB30 TEMPO 2015/2018 7000 -RA BKN025 BKN070
         BECMG 2016/2018 30010KT SCT100=

Valid WARNINGS

No reports found.